Time;durP1;ratioP1;P1;durP2;ratioP2;P2;SDS_P1;SDS_P2;PMS_P1;PMS_P2;Temp;Humidity;BMP_temperature;BMP_pressure;BME280_temperature;BME280_humidity;BME280_pressure;Samples;Min_cycle;Max_cycle;Signal;HPM_P1;HPM_P2
2024/04/08 00:02:14;;;;;;;12.43;4.70;;;;;;;;;;5090983;28;20198;-79
2024/04/08 00:04:41;;;;;;;11.87;3.67;;;;;;;;;;5091609;28;20289;-79
2024/04/08 00:07:08;;;;;;;9.17;3.80;;;;;;;;;;5091607;28;20274;-79
2024/04/08 00:09:35;;;;;;;12.40;4.00;;;;;;;;;;5091923;28;20206;-79
2024/04/08 00:12:01;;;;;;;14.27;3.70;;;;;;;;;;5091374;28;20287;-78
2024/04/08 00:14:28;;;;;;;9.83;3.40;;;;;;;;;;5091255;28;20199;-79
2024/04/08 00:16:54;;;;;;;9.87;3.13;;;;;;;;;;5091180;28;20194;-78
2024/04/08 00:19:23;;;;;;;6.73;3.20;;;;;;;;;;5091348;28;20257;-80
2024/04/08 00:21:49;;;;;;;9.47;3.53;;;;;;;;;;5091678;28;20251;-79
2024/04/08 00:24:17;;;;;;;8.13;3.13;;;;;;;;;;5091271;28;20294;-79
2024/04/08 00:26:43;;;;;;;10.73;3.63;;;;;;;;;;5091061;28;20234;-79
2024/04/08 00:29:11;;;;;;;11.77;3.40;;;;;;;;;;5090720;28;20205;-79
2024/04/08 00:31:37;;;;;;;8.43;3.30;;;;;;;;;;5091555;28;20774;-78
2024/04/08 00:34:05;;;;;;;7.37;3.33;;;;;;;;;;5091115;28;20205;-79
2024/04/08 00:36:32;;;;;;;6.97;3.37;;;;;;;;;;5090893;28;20248;-79
2024/04/08 00:38:59;;;;;;;10.47;4.00;;;;;;;;;;5091375;28;20731;-80
2024/04/08 00:41:26;;;;;;;9.73;4.10;;;;;;;;;;5090759;28;20201;-78
2024/04/08 00:43:53;;;;;;;10.40;3.43;;;;;;;;;;5090948;28;20724;-80
2024/04/08 00:46:22;;;;;;;12.03;3.67;;;;;;;;;;5091454;28;20197;-78
2024/04/08 00:48:51;;;;;;;11.87;3.90;;;;;;;;;;5090850;28;20582;-79
2024/04/08 00:51:17;;;;;;;11.27;3.60;;;;;;;;;;5091251;28;20195;-78
2024/04/08 00:53:47;;;;;;;10.20;4.00;;;;;;;;;;5090971;28;20436;-77
2024/04/08 00:56:13;;;;;;;13.00;4.40;;;;;;;;;;5090870;28;20199;-79
2024/04/08 00:58:40;;;;;;;13.67;4.00;;;;;;;;;;5090833;28;20249;-79
2024/04/08 01:01:07;;;;;;;9.87;3.97;;;;;;;;;;5090968;28;20202;-79
2024/04/08 01:03:34;;;;;;;13.33;4.10;;;;;;;;;;5087561;28;20203;-78
2024/04/08 01:06:01;;;;;;;11.13;4.40;;;;;;;;;;5081565;28;20229;-78
2024/04/08 01:08:28;;;;;;;11.83;4.30;;;;;;;;;;5070795;28;20210;-79
2024/04/08 01:10:57;;;;;;;9.07;3.70;;;;;;;;;;5074228;28;20234;-79
2024/04/08 01:13:24;;;;;;;10.47;3.93;;;;;;;;;;5080476;28;20651;-79
2024/04/08 01:15:50;;;;;;;10.00;3.87;;;;;;;;;;5094781;28;20247;-79
2024/04/08 01:18:17;;;;;;;11.20;3.93;;;;;;;;;;5094838;28;20229;-79
2024/04/08 01:20:44;;;;;;;8.87;3.87;;;;;;;;;;5094423;28;20220;-79
2024/04/08 01:23:12;;;;;;;14.17;4.20;;;;;;;;;;5094800;28;20243;-79
2024/04/08 01:25:40;;;;;;;9.37;3.77;;;;;;;;;;5093945;28;20306;-78
2024/04/08 01:28:08;;;;;;;13.27;4.10;;;;;;;;;;5094606;28;20206;-79
2024/04/08 01:30:34;;;;;;;11.00;3.43;;;;;;;;;;5094559;28;20674;-79
2024/04/08 01:33:01;;;;;;;13.00;4.13;;;;;;;;;;5094624;28;20199;-78
2024/04/08 01:35:27;;;;;;;9.70;4.17;;;;;;;;;;5094201;28;20220;-79
2024/04/08 01:37:55;;;;;;;10.50;4.27;;;;;;;;;;5094126;28;20206;-78
2024/04/08 01:40:21;;;;;;;13.30;5.20;;;;;;;;;;5093929;28;20198;-79
2024/04/08 01:42:50;;;;;;;10.20;4.70;;;;;;;;;;5094348;28;20703;-78
2024/04/08 01:45:16;;;;;;;14.70;5.20;;;;;;;;;;5094405;28;20198;-79
2024/04/08 01:47:43;;;;;;;13.20;5.23;;;;;;;;;;5093871;28;20267;-79
2024/04/08 01:50:09;;;;;;;20.97;5.60;;;;;;;;;;5094407;28;20323;-77
2024/04/08 01:52:36;;;;;;;22.87;6.00;;;;;;;;;;5094256;28;20289;-78
2024/04/08 01:55:03;;;;;;;14.20;5.80;;;;;;;;;;5093290;28;20284;-79
2024/04/08 01:57:30;;;;;;;12.70;5.37;;;;;;;;;;5093794;28;20290;-78
2024/04/08 01:59:58;;;;;;;13.93;5.63;;;;;;;;;;5093398;28;20233;-78
2024/04/08 02:02:25;;;;;;;10.87;5.00;;;;;;;;;;5093919;28;20242;-79
2024/04/08 02:04:51;;;;;;;13.47;5.40;;;;;;;;;;5093657;28;20205;-79
2024/04/08 02:07:18;;;;;;;15.17;4.97;;;;;;;;;;5094099;28;20694;-78
2024/04/08 02:09:45;;;;;;;13.57;5.37;;;;;;;;;;5093604;28;20279;-78
2024/04/08 02:12:12;;;;;;;8.93;4.77;;;;;;;;;;5093698;28;20285;-78
2024/04/08 02:14:38;;;;;;;8.87;4.90;;;;;;;;;;5093633;28;20278;-78
2024/04/08 02:17:07;;;;;;;11.93;4.93;;;;;;;;;;5093589;28;20241;-78
2024/04/08 02:19:33;;;;;;;9.13;4.67;;;;;;;;;;5093798;28;20279;-78
2024/04/08 02:22:01;;;;;;;7.70;4.90;;;;;;;;;;5093380;28;20226;-79
2024/04/08 02:24:28;;;;;;;10.10;4.87;;;;;;;;;;5093220;28;20194;-80
2024/04/08 02:26:55;;;;;;;9.83;4.50;;;;;;;;;;5093672;28;20238;-79
2024/04/08 02:29:21;;;;;;;10.00;5.20;;;;;;;;;;5093345;28;20198;-78
2024/04/08 02:31:49;;;;;;;12.57;4.90;;;;;;;;;;5093138;28;20639;-79
2024/04/08 02:34:16;;;;;;;9.60;4.70;;;;;;;;;;5092997;28;20198;-78
2024/04/08 02:36:44;;;;;;;9.50;4.93;;;;;;;;;;5093274;28;20747;-79
2024/04/08 02:39:10;;;;;;;9.40;5.00;;;;;;;;;;5092247;28;20233;-79
2024/04/08 02:41:37;;;;;;;9.37;4.40;;;;;;;;;;5092968;28;20704;-79
2024/04/08 02:44:04;;;;;;;8.93;4.30;;;;;;;;;;5092935;28;20194;-79
2024/04/08 02:46:31;;;;;;;7.80;4.80;;;;;;;;;;5092772;28;20210;-79
2024/04/08 02:48:57;;;;;;;10.17;4.97;;;;;;;;;;5093000;28;20225;-79
2024/04/08 02:51:26;;;;;;;8.93;4.40;;;;;;;;;;5092611;28;20190;-79
2024/04/08 02:53:52;;;;;;;8.43;4.50;;;;;;;;;;5092582;28;20195;-78
2024/04/08 02:56:19;;;;;;;7.13;4.27;;;;;;;;;;5092618;28;20262;-79
2024/04/08 02:58:45;;;;;;;7.03;4.07;;;;;;;;;;5092741;28;20317;-78
2024/04/08 03:01:13;;;;;;;9.80;4.33;;;;;;;;;;5092427;28;20685;-79
2024/04/08 03:03:40;;;;;;;7.27;4.17;;;;;;;;;;5092632;28;20201;-78
2024/04/08 03:06:10;;;;;;;11.13;4.60;;;;;;;;;;5092696;28;20208;-79
2024/04/08 03:08:38;;;;;;;8.33;4.20;;;;;;;;;;5092051;28;20213;-79
2024/04/08 03:11:05;;;;;;;8.17;4.63;;;;;;;;;;5092340;28;20205;-79
2024/04/08 03:13:31;;;;;;;9.17;4.37;;;;;;;;;;5092728;28;20253;-79
2024/04/08 03:15:59;;;;;;;5.97;3.87;;;;;;;;;;5092529;28;20564;-79
2024/04/08 03:18:25;;;;;;;7.80;3.80;;;;;;;;;;5092390;28;20256;-78
2024/04/08 03:20:56;;;;;;;12.87;4.50;;;;;;;;;;5091888;28;20234;-78
2024/04/08 03:23:22;;;;;;;7.47;3.83;;;;;;;;;;5092050;28;20621;-79
2024/04/08 03:25:57;;;;;;;8.53;3.90;;;;;;;;;;5091952;28;20239;-79
2024/04/08 03:28:23;;;;;;;8.43;3.97;;;;;;;;;;5092610;28;20221;-77
2024/04/08 03:30:51;;;;;;;8.27;4.03;;;;;;;;;;5092205;28;20198;-79
2024/04/08 03:33:18;;;;;;;6.57;3.53;;;;;;;;;;5091532;28;20731;-79
2024/04/08 03:35:46;;;;;;;8.47;4.23;;;;;;;;;;5091756;28;20736;-79
2024/04/08 03:38:13;;;;;;;9.97;6.30;;;;;;;;;;5091971;28;20701;-79
2024/04/08 03:40:40;;;;;;;7.90;4.03;;;;;;;;;;5091979;28;20194;-79
2024/04/08 03:43:09;;;;;;;6.73;4.20;;;;;;;;;;5092142;28;20269;-78
2024/04/08 03:45:38;;;;;;;7.23;3.90;;;;;;;;;;5092095;28;20256;-77
2024/04/08 03:48:05;;;;;;;5.87;3.63;;;;;;;;;;5092365;28;20282;-78
2024/04/08 03:50:34;;;;;;;6.87;3.83;;;;;;;;;;5091207;28;20663;-79
2024/04/08 03:53:02;;;;;;;5.23;3.47;;;;;;;;;;5091832;28;20765;-79
2024/04/08 03:55:29;;;;;;;7.57;3.87;;;;;;;;;;5091885;28;20198;-78
2024/04/08 03:57:56;;;;;;;8.87;3.77;;;;;;;;;;5091524;28;20234;-79
2024/04/08 04:00:25;;;;;;;4.90;3.63;;;;;;;;;;5092108;28;20315;-78
2024/04/08 04:02:51;;;;;;;5.20;3.37;;;;;;;;;;5091181;28;20677;-78
2024/04/08 04:05:19;;;;;;;7.13;3.37;;;;;;;;;;5091486;28;20246;-79
2024/04/08 04:07:45;;;;;;;7.13;3.90;;;;;;;;;;5091477;28;20244;-79
2024/04/08 04:10:12;;;;;;;6.40;4.10;;;;;;;;;;5091463;28;20194;-78
2024/04/08 04:12:39;;;;;;;6.07;3.90;;;;;;;;;;5091672;28;20199;-79
2024/04/08 04:15:07;;;;;;;8.20;4.23;;;;;;;;;;5091515;28;20289;-78
2024/04/08 04:17:34;;;;;;;6.13;3.90;;;;;;;;;;5091174;28;20203;-78
2024/04/08 04:20:03;;;;;;;7.17;4.07;;;;;;;;;;5091366;28;20318;-78
2024/04/08 04:22:29;;;;;;;7.17;4.20;;;;;;;;;;5091336;28;20202;-78
2024/04/08 04:24:57;;;;;;;7.30;4.33;;;;;;;;;;5091801;28;20662;-79
2024/04/08 04:27:23;;;;;;;7.60;4.10;;;;;;;;;;5091069;28;20279;-77
2024/04/08 04:29:50;;;;;;;7.37;4.30;;;;;;;;;;5091123;28;20257;-78
2024/04/08 04:32:16;;;;;;;5.93;4.00;;;;;;;;;;5092074;28;20654;-79
2024/04/08 04:34:45;;;;;;;9.07;4.73;;;;;;;;;;5090503;28;20195;-79
2024/04/08 04:37:12;;;;;;;7.77;4.27;;;;;;;;;;5091468;28;20216;-80
2024/04/08 04:39:39;;;;;;;7.73;4.13;;;;;;;;;;5091467;28;20233;-80
2024/04/08 04:42:05;;;;;;;6.10;4.43;;;;;;;;;;5091459;28;20198;-80
2024/04/08 04:44:32;;;;;;;10.10;4.70;;;;;;;;;;5093748;28;20203;-80
2024/04/08 04:46:58;;;;;;;9.50;4.90;;;;;;;;;;5095263;28;20198;-80
2024/04/08 04:49:26;;;;;;;9.50;5.23;;;;;;;;;;5094860;28;20205;-80
2024/04/08 04:51:53;;;;;;;7.73;5.43;;;;;;;;;;5095400;28;20257;-80
2024/04/08 04:54:21;;;;;;;8.13;5.97;;;;;;;;;;5095267;28;20230;-80
2024/04/08 04:56:47;;;;;;;11.17;6.10;;;;;;;;;;5094907;28;20202;-80
2024/04/08 04:59:14;;;;;;;10.63;5.90;;;;;;;;;;5095472;28;20279;-81
2024/04/08 05:01:40;;;;;;;8.80;6.13;;;;;;;;;;5095111;28;20616;-79
2024/04/08 05:04:08;;;;;;;16.50;6.17;;;;;;;;;;5094189;28;20202;-81
2024/04/08 05:06:34;;;;;;;10.17;6.27;;;;;;;;;;5095077;28;20616;-80
2024/04/08 05:09:04;;;;;;;11.60;6.50;;;;;;;;;;5094749;28;20663;-81
2024/04/08 05:11:30;;;;;;;10.33;7.10;;;;;;;;;;5094459;28;20692;-81
2024/04/08 05:13:57;;;;;;;14.63;6.73;;;;;;;;;;5095178;28;20199;-81
2024/04/08 05:16:23;;;;;;;15.17;7.50;;;;;;;;;;5094928;28;20620;-81
2024/04/08 05:18:51;;;;;;;12.43;7.37;;;;;;;;;;5094007;28;20565;-80
2024/04/08 05:21:17;;;;;;;13.53;7.57;;;;;;;;;;5095048;28;20190;-81
2024/04/08 05:23:44;;;;;;;14.37;8.07;;;;;;;;;;5094309;28;20712;-80
2024/04/08 05:26:12;;;;;;;13.10;7.50;;;;;;;;;;5094784;28;20236;-82
2024/04/08 05:28:40;;;;;;;12.73;7.17;;;;;;;;;;5094027;28;20277;-81
2024/04/08 05:31:06;;;;;;;12.93;6.70;;;;;;;;;;5094906;28;20198;-80
2024/04/08 05:33:33;;;;;;;13.30;6.87;;;;;;;;;;5093857;28;20202;-82
2024/04/08 05:36:00;;;;;;;10.43;7.07;;;;;;;;;;5093932;28;20233;-81
2024/04/08 05:38:27;;;;;;;13.60;7.10;;;;;;;;;;5094451;28;20204;-81
2024/04/08 05:40:53;;;;;;;11.47;6.50;;;;;;;;;;5094407;28;20279;-80
2024/04/08 05:43:22;;;;;;;12.10;6.90;;;;;;;;;;5094220;28;20205;-81
2024/04/08 05:45:48;;;;;;;9.67;6.10;;;;;;;;;;5093838;28;20213;-81
2024/04/08 05:48:16;;;;;;;9.93;5.83;;;;;;;;;;5094394;28;20201;-81
2024/04/08 05:50:42;;;;;;;8.13;5.17;;;;;;;;;;5094332;28;20198;-81
2024/04/08 05:53:11;;;;;;;7.77;5.20;;;;;;;;;;5093930;28;20206;-80
2024/04/08 05:55:38;;;;;;;6.90;5.03;;;;;;;;;;5093650;28;20565;-81
2024/04/08 05:58:07;;;;;;;8.57;4.90;;;;;;;;;;5093969;28;20297;-81
2024/04/08 06:00:36;;;;;;;9.40;5.37;;;;;;;;;;5093387;28;20237;-81
2024/04/08 06:03:03;;;;;;;6.27;4.63;;;;;;;;;;5094262;28;20205;-80
2024/04/08 06:05:30;;;;;;;6.50;4.67;;;;;;;;;;5093567;28;20215;-80
2024/04/08 06:07:57;;;;;;;6.43;4.23;;;;;;;;;;5093972;28;20202;-81
2024/04/08 06:10:26;;;;;;;5.47;4.50;;;;;;;;;;5093942;28;20194;-80
2024/04/08 06:12:53;;;;;;;6.57;4.63;;;;;;;;;;5093866;28;20198;-81
2024/04/08 06:15:19;;;;;;;6.17;4.70;;;;;;;;;;5093176;28;20323;-80
2024/04/08 06:17:49;;;;;;;6.33;4.90;;;;;;;;;;5093483;28;20259;-80
2024/04/08 06:20:16;;;;;;;5.93;4.60;;;;;;;;;;5093447;28;20283;-82
2024/04/08 06:22:43;;;;;;;6.67;4.37;;;;;;;;;;5093970;28;20252;-79
2024/04/08 06:25:09;;;;;;;4.90;4.40;;;;;;;;;;5093505;28;20190;-81
2024/04/08 06:27:37;;;;;;;5.50;4.70;;;;;;;;;;5093186;28;20757;-78
2024/04/08 06:30:03;;;;;;;6.40;4.83;;;;;;;;;;5092738;28;20276;-81
2024/04/08 06:32:31;;;;;;;7.10;4.87;;;;;;;;;;5093374;28;20292;-80
2024/04/08 06:34:58;;;;;;;4.80;4.30;;;;;;;;;;5093411;28;20251;-80
2024/04/08 06:37:26;;;;;;;5.43;4.50;;;;;;;;;;5093474;28;20244;-81
2024/04/08 06:39:52;;;;;;;6.90;4.70;;;;;;;;;;5093342;28;20253;-80
2024/04/08 06:42:19;;;;;;;5.87;4.10;;;;;;;;;;5093096;28;20643;-81
2024/04/08 06:44:49;;;;;;;6.07;4.50;;;;;;;;;;5092987;28;20600;-80
2024/04/08 06:47:16;;;;;;;5.70;4.43;;;;;;;;;;5090506;28;20202;-81
2024/04/08 06:49:43;;;;;;;5.47;4.37;;;;;;;;;;5093293;28;20243;-80
2024/04/08 06:52:12;;;;;;;7.70;4.63;;;;;;;;;;5089035;28;20685;-80
2024/04/08 06:54:38;;;;;;;6.27;4.87;;;;;;;;;;5092538;28;20202;-79
2024/04/08 06:57:06;;;;;;;6.07;4.70;;;;;;;;;;5092747;28;20622;-80
2024/04/08 06:59:32;;;;;;;5.50;4.70;;;;;;;;;;5084545;28;20227;-85
2024/04/08 07:02:00;;;;;;;6.37;4.80;;;;;;;;;;5072589;28;20199;-84
2024/04/08 07:04:26;;;;;;;5.27;4.73;;;;;;;;;;5072774;28;20249;-83
2024/04/08 07:06:53;;;;;;;6.57;4.80;;;;;;;;;;5071353;28;20244;-84
2024/04/08 07:09:25;;;;;;;5.67;4.83;;;;;;;;;;5072469;28;20203;-80
2024/04/08 07:11:53;;;;;;;7.13;4.80;;;;;;;;;;5072527;28;20282;-82
2024/04/08 07:14:19;;;;;;;6.53;4.77;;;;;;;;;;5085362;28;20202;-81
2024/04/08 07:16:47;;;;;;;8.70;5.27;;;;;;;;;;5092344;28;20198;-82
2024/04/08 07:19:13;;;;;;;6.50;5.00;;;;;;;;;;5092162;28;20226;-80
2024/04/08 07:21:40;;;;;;;7.13;5.27;;;;;;;;;;5092577;28;20244;-82
2024/04/08 07:24:07;;;;;;;5.63;5.00;;;;;;;;;;5092348;28;20252;-82
2024/04/08 07:26:36;;;;;;;6.10;4.90;;;;;;;;;;5092058;28;20313;-80
2024/04/08 07:29:02;;;;;;;5.47;4.83;;;;;;;;;;5091821;28;20190;-81
2024/04/08 07:31:30;;;;;;;5.20;4.40;;;;;;;;;;5092338;28;20249;-80
2024/04/08 07:33:56;;;;;;;5.60;4.90;;;;;;;;;;5092121;28;20195;-81
2024/04/08 07:36:23;;;;;;;6.30;4.43;;;;;;;;;;5092212;28;20202;-80
2024/04/08 07:38:49;;;;;;;5.50;4.40;;;;;;;;;;5092169;28;20283;-80
2024/04/08 07:41:17;;;;;;;4.50;4.10;;;;;;;;;;5091666;28;20728;-80
2024/04/08 07:43:44;;;;;;;4.90;4.03;;;;;;;;;;5091928;28;20195;-80
2024/04/08 07:46:12;;;;;;;5.73;4.30;;;;;;;;;;5092338;28;20210;-81
2024/04/08 07:48:38;;;;;;;6.27;4.17;;;;;;;;;;5091860;28;20198;-80
2024/04/08 07:51:05;;;;;;;5.87;4.23;;;;;;;;;;5090838;28;20209;-81
2024/04/08 07:53:32;;;;;;;4.80;3.70;;;;;;;;;;5091624;28;20222;-81
2024/04/08 07:56:00;;;;;;;4.57;3.90;;;;;;;;;;5090434;28;20252;-81
2024/04/08 07:58:28;;;;;;;6.03;3.87;;;;;;;;;;5090585;28;20194;-80
2024/04/08 08:01:00;;;;;;;4.43;3.63;;;;;;;;;;5091509;28;20386;-80
2024/04/08 08:03:28;;;;;;;5.23;3.90;;;;;;;;;;5092021;28;20203;-80
2024/04/08 08:05:55;;;;;;;4.00;3.47;;;;;;;;;;5091687;28;20195;-80
2024/04/08 08:08:23;;;;;;;4.23;3.53;;;;;;;;;;5091817;28;20285;-82
2024/04/08 08:10:50;;;;;;;3.90;3.50;;;;;;;;;;5091442;28;20237;-81
2024/04/08 08:13:18;;;;;;;4.40;3.43;;;;;;;;;;5091994;28;20278;-81
2024/04/08 08:15:45;;;;;;;3.97;3.27;;;;;;;;;;5091568;28;20225;-80
2024/04/08 08:18:14;;;;;;;3.53;3.00;;;;;;;;;;5091741;28;20200;-81
2024/04/08 08:20:41;;;;;;;5.90;2.93;;;;;;;;;;5091837;28;20307;-81
2024/04/08 08:23:09;;;;;;;4.40;3.17;;;;;;;;;;5091082;28;20187;-81
2024/04/08 08:25:36;;;;;;;8.40;5.50;;;;;;;;;;5091075;28;20671;-80
2024/04/08 08:28:04;;;;;;;7.10;5.60;;;;;;;;;;5091302;28;20191;-80
2024/04/08 08:30:31;;;;;;;3.20;2.90;;;;;;;;;;5091394;28;20233;-81
2024/04/08 08:32:58;;;;;;;3.37;3.07;;;;;;;;;;5091870;28;20194;-81
2024/04/08 08:35:27;;;;;;;3.07;2.77;;;;;;;;;;5091307;28;20322;-80
2024/04/08 08:37:53;;;;;;;3.90;3.00;;;;;;;;;;5091556;28;20198;-80
2024/04/08 08:40:21;;;;;;;5.37;3.20;;;;;;;;;;5090808;28;20234;-80
2024/04/08 08:42:50;;;;;;;3.20;2.90;;;;;;;;;;5091393;28;20588;-80
2024/04/08 08:45:18;;;;;;;3.40;3.10;;;;;;;;;;5092009;28;20202;-81
2024/04/08 08:47:44;;;;;;;3.37;3.07;;;;;;;;;;5090985;28;20248;-79
2024/04/08 08:50:12;;;;;;;3.27;2.90;;;;;;;;;;5090996;28;20293;-81
2024/04/08 08:52:42;;;;;;;3.63;3.33;;;;;;;;;;5090816;28;20252;-81
2024/04/08 08:55:10;;;;;;;5.27;3.80;;;;;;;;;;5090809;28;20198;-82
2024/04/08 08:57:36;;;;;;;5.57;4.03;;;;;;;;;;5091539;28;20198;-81
2024/04/08 09:00:05;;;;;;;5.77;4.40;;;;;;;;;;5090927;28;20299;-82
2024/04/08 09:02:32;;;;;;;5.67;4.03;;;;;;;;;;5091214;28;20202;-82
2024/04/08 09:04:59;;;;;;;5.30;3.80;;;;;;;;;;5091139;28;20194;-81
2024/04/08 09:07:25;;;;;;;6.13;4.40;;;;;;;;;;5091048;28;20194;-82
2024/04/08 09:09:57;;;;;;;3.97;3.57;;;;;;;;;;5091085;28;20202;-81
2024/04/08 09:12:23;;;;;;;4.40;3.50;;;;;;;;;;5091362;28;20198;-81
2024/04/08 09:14:51;;;;;;;4.63;3.60;;;;;;;;;;5090797;28;20597;-81
2024/04/08 09:17:18;;;;;;;4.87;4.00;;;;;;;;;;5091102;28;20195;-80
2024/04/08 09:19:45;;;;;;;5.60;3.77;;;;;;;;;;5090939;28;20226;-81
2024/04/08 09:22:12;;;;;;;4.73;3.97;;;;;;;;;;5090641;28;20608;-82
2024/04/08 09:24:41;;;;;;;5.30;4.00;;;;;;;;;;5090583;28;20203;-81
2024/04/08 09:27:09;;;;;;;5.77;3.90;;;;;;;;;;5089495;28;20230;-82
2024/04/08 09:29:36;;;;;;;4.23;3.70;;;;;;;;;;5091453;28;20241;-82
2024/04/08 09:32:02;;;;;;;5.93;4.80;;;;;;;;;;5094390;28;20198;-81
2024/04/08 09:34:30;;;;;;;6.03;4.37;;;;;;;;;;5095054;28;20230;-82
2024/04/08 09:36:56;;;;;;;4.07;3.20;;;;;;;;;;5094204;28;20190;-82
2024/04/08 09:39:24;;;;;;;4.20;3.40;;;;;;;;;;5093975;28;20210;-82
2024/04/08 09:41:53;;;;;;;4.87;3.20;;;;;;;;;;5094179;28;20671;-81
2024/04/08 09:44:22;;;;;;;5.43;2.97;;;;;;;;;;5094548;28;20190;-80
2024/04/08 09:46:49;;;;;;;2.87;2.60;;;;;;;;;;5094233;28;20190;-81
2024/04/08 09:49:20;;;;;;;4.40;2.10;;;;;;;;;;5093910;28;20578;-81
2024/04/08 09:51:46;;;;;;;2.53;2.00;;;;;;;;;;5094334;28;20248;-82
2024/04/08 09:54:13;;;;;;;3.20;2.10;;;;;;;;;;5094227;28;20202;-81
2024/04/08 09:56:40;;;;;;;2.27;1.73;;;;;;;;;;5093793;28;20198;-81
2024/04/08 09:59:10;;;;;;;2.50;1.97;;;;;;;;;;5094081;28;20202;-82
2024/04/08 10:01:38;;;;;;;2.40;1.70;;;;;;;;;;5094129;28;20230;-80
2024/04/08 10:04:09;;;;;;;2.23;1.83;;;;;;;;;;5093869;28;20194;-81
2024/04/08 10:06:35;;;;;;;2.53;1.83;;;;;;;;;;5094096;28;20195;-83
2024/04/08 10:09:03;;;;;;;3.37;1.87;;;;;;;;;;5093524;28;20195;-81
2024/04/08 10:11:29;;;;;;;1.70;1.50;;;;;;;;;;5093631;28;20579;-81
2024/04/08 10:13:57;;;;;;;2.20;1.63;;;;;;;;;;5093723;28;20199;-81
2024/04/08 10:16:24;;;;;;;2.07;1.30;;;;;;;;;;5093651;28;20374;-81
2024/04/08 10:18:54;;;;;;;1.93;1.33;;;;;;;;;;5092634;28;20206;-79
2024/04/08 10:21:20;;;;;;;2.13;1.60;;;;;;;;;;5092893;28;20315;-80
2024/04/08 10:23:48;;;;;;;2.00;1.40;;;;;;;;;;4738534;28;10000166;-81
2024/04/08 10:26:15;;;;;;;3.33;1.50;;;;;;;;;;5090037;28;20237;-81
2024/04/08 10:28:42;;;;;;;2.03;1.60;;;;;;;;;;5090160;28;20241;-81
2024/04/08 10:31:09;;;;;;;3.33;1.90;;;;;;;;;;5090321;28;20725;-80
2024/04/08 10:33:36;;;;;;;2.47;1.77;;;;;;;;;;5089820;28;20198;-80
2024/04/08 10:36:04;;;;;;;2.30;1.67;;;;;;;;;;5088916;28;20244;-80
2024/04/08 10:38:31;;;;;;;3.10;2.13;;;;;;;;;;5089297;28;20198;-81
2024/04/08 10:41:05;;;;;;;4.27;1.80;;;;;;;;;;5089389;28;20323;-82
2024/04/08 10:43:32;;;;;;;3.90;2.17;;;;;;;;;;5089490;28;20206;-83
2024/04/08 10:45:59;;;;;;;2.73;1.93;;;;;;;;;;5089520;28;20252;-83
2024/04/08 10:48:26;;;;;;;3.50;2.13;;;;;;;;;;5089639;28;20206;-83
2024/04/08 10:50:52;;;;;;;5.38;2.92;;;;;;;;;;5089786;28;20191;-83
2024/04/08 10:53:21;;;;;;;4.13;2.93;;;;;;;;;;5089551;28;20206;-83
2024/04/08 10:55:47;;;;;;;4.72;2.63;;;;;;;;;;5089476;28;20206;-83
2024/04/08 10:58:15;;;;;;;6.47;3.17;;;;;;;;;;5089094;28;20198;-83
2024/04/08 11:00:41;;;;;;;4.40;2.90;;;;;;;;;;5089576;28;20249;-82
2024/04/08 11:03:10;;;;;;;6.10;4.68;;;;;;;;;;5089818;28;20198;-83
2024/04/08 11:05:36;;;;;;;8.13;4.70;;;;;;;;;;5089026;28;20586;-82
2024/04/08 11:08:03;;;;;;;5.65;3.08;;;;;;;;;;5089223;28;20237;-84
2024/04/08 11:10:31;;;;;;;5.07;3.40;;;;;;;;;;5089271;28;20255;-84
2024/04/08 11:12:59;;;;;;;5.97;3.60;;;;;;;;;;5090018;28;20298;-82
2024/04/08 11:15:28;;;;;;;5.57;2.83;;;;;;;;;;5089355;28;20203;-84
2024/04/08 11:17:57;;;;;;;4.13;2.70;;;;;;;;;;5090689;28;20252;-84
2024/04/08 11:20:23;;;;;;;3.92;2.75;;;;;;;;;;5092792;28;20232;-83
2024/04/08 11:22:51;;;;;;;6.95;3.70;;;;;;;;;;5092495;28;20198;-84
2024/04/08 11:25:17;;;;;;;4.72;3.20;;;;;;;;;;5092289;28;20744;-84
2024/04/08 11:27:46;;;;;;;6.53;3.78;;;;;;;;;;5092985;28;20290;-83
2024/04/08 11:30:14;;;;;;;8.00;3.42;;;;;;;;;;5092445;28;20225;-82
2024/04/08 11:32:42;;;;;;;4.93;3.20;;;;;;;;;;5091409;28;20603;-83
2024/04/08 11:35:08;;;;;;;9.80;3.50;;;;;;;;;;5091984;28;20198;-83
2024/04/08 11:37:36;;;;;;;4.10;2.88;;;;;;;;;;5092237;28;20198;-84
2024/04/08 11:40:04;;;;;;;5.47;2.97;;;;;;;;;;5092163;28;20218;-82
2024/04/08 11:42:31;;;;;;;4.05;3.17;;;;;;;;;;5092618;28;20202;-85
2024/04/08 11:44:59;;;;;;;3.65;3.08;;;;;;;;;;5092532;28;20218;-83
2024/04/08 11:47:27;;;;;;;4.30;2.67;;;;;;;;;;5091816;28;20234;-82
2024/04/08 11:49:53;;;;;;;5.18;2.90;;;;;;;;;;5091514;28;20248;-83
2024/04/08 11:52:20;;;;;;;5.40;2.50;;;;;;;;;;5091382;28;20198;-82
2024/04/08 11:54:47;;;;;;;6.47;3.05;;;;;;;;;;5091667;28;20718;-81
2024/04/08 11:57:15;;;;;;;6.00;2.95;;;;;;;;;;5092093;28;20211;-81
2024/04/08 11:59:42;;;;;;;5.68;2.85;;;;;;;;;;5091991;28;20205;-82
2024/04/08 12:02:11;;;;;;;8.70;2.88;;;;;;;;;;5091315;28;20773;-80
2024/04/08 12:04:39;;;;;;;6.53;2.40;;;;;;;;;;5091911;28;20199;-80
2024/04/08 12:07:06;;;;;;;4.70;2.88;;;;;;;;;;5091332;28;20674;-81
2024/04/08 12:09:32;;;;;;;4.15;2.30;;;;;;;;;;5091955;28;20247;-81
2024/04/08 12:12:00;;;;;;;7.28;2.85;;;;;;;;;;5091560;28;20206;-81
2024/04/08 12:14:26;;;;;;;6.03;2.67;;;;;;;;;;5091803;28;20566;-82
2024/04/08 12:16:53;;;;;;;6.03;2.53;;;;;;;;;;5091883;28;20202;-82
2024/04/08 12:19:21;;;;;;;6.18;2.58;;;;;;;;;;5091556;28;20234;-82
2024/04/08 12:21:48;;;;;;;5.63;3.00;;;;;;;;;;5091813;28;20325;-82
2024/04/08 12:24:14;;;;;;;5.90;2.95;;;;;;;;;;5091824;28;20198;-81
2024/04/08 12:26:42;;;;;;;4.97;2.25;;;;;;;;;;5091404;28;20631;-82
2024/04/08 12:29:08;;;;;;;5.68;2.53;;;;;;;;;;5091432;28;20194;-81
2024/04/08 12:31:35;;;;;;;8.48;2.25;;;;;;;;;;5091764;28;20267;-81
2024/04/08 12:34:01;;;;;;;3.72;1.92;;;;;;;;;;5090883;28;20666;-81
2024/04/08 12:36:30;;;;;;;5.07;2.00;;;;;;;;;;5091281;28;20194;-82
2024/04/08 12:38:57;;;;;;;5.43;1.95;;;;;;;;;;5092106;28;20194;-83
2024/04/08 12:41:24;;;;;;;5.28;1.88;;;;;;;;;;5091118;28;20291;-82
2024/04/08 12:43:51;;;;;;;5.60;1.83;;;;;;;;;;5091342;28;20218;-80
2024/04/08 12:46:19;;;;;;;5.88;2.10;;;;;;;;;;5091097;28;20903;-80
2024/04/08 12:48:45;;;;;;;4.97;1.83;;;;;;;;;;5091427;28;20194;-82
2024/04/08 12:51:13;;;;;;;5.63;1.63;;;;;;;;;;5091018;28;20740;-83
2024/04/08 12:53:40;;;;;;;5.45;1.70;;;;;;;;;;5091133;28;20546;-82
2024/04/08 12:56:11;;;;;;;3.85;1.90;;;;;;;;;;5091529;28;20309;-83
2024/04/08 12:58:37;;;;;;;3.63;1.48;;;;;;;;;;5091803;28;20238;-82
2024/04/08 13:01:04;;;;;;;4.68;1.30;;;;;;;;;;5090943;28;20250;-81
2024/04/08 13:03:31;;;;;;;3.20;1.13;;;;;;;;;;5091192;28;20199;-83
2024/04/08 13:05:58;;;;;;;4.07;1.13;;;;;;;;;;5093830;28;20221;-81
2024/04/08 13:08:24;;;;;;;3.67;1.13;;;;;;;;;;5095196;28;20198;-82
2024/04/08 13:10:53;;;;;;;5.00;1.40;;;;;;;;;;5095084;28;20206;-81
2024/04/08 13:13:19;;;;;;;3.70;1.40;;;;;;;;;;5094913;28;20199;-81
2024/04/08 13:15:46;;;;;;;3.65;1.58;;;;;;;;;;5094997;28;20206;-83
2024/04/08 13:18:12;;;;;;;6.20;1.80;;;;;;;;;;5094656;28;20198;-84
2024/04/08 13:20:40;;;;;;;4.43;1.58;;;;;;;;;;5094759;28;20222;-82
2024/04/08 13:23:06;;;;;;;6.22;1.70;;;;;;;;;;5095011;28;20195;-81
2024/04/08 13:25:33;;;;;;;3.65;1.60;;;;;;;;;;5094362;28;20623;-81
2024/04/08 13:28:01;;;;;;;3.92;1.45;;;;;;;;;;5094527;28;20545;-82
2024/04/08 13:30:28;;;;;;;3.95;1.55;;;;;;;;;;5094398;28;20202;-82
2024/04/08 13:34:36;;;;;;;5.10;1.42;;;;;;;;;;5433434;25;20912;-82
2024/04/08 13:37:03;;;;;;;4.90;1.20;;;;;;;;;;5434211;26;20221;-81
2024/04/08 13:39:32;;;;;;;5.03;1.30;;;;;;;;;;5434370;26;20259;-82
2024/04/08 13:41:59;;;;;;;5.35;1.55;;;;;;;;;;5433915;26;20693;-82
2024/04/08 13:44:28;;;;;;;6.78;2.13;;;;;;;;;;5433534;26;20767;-81
2024/04/08 13:46:54;;;;;;;3.60;1.40;;;;;;;;;;5434140;26;20221;-81
2024/04/08 13:49:23;;;;;;;4.32;1.45;;;;;;;;;;5433267;26;20345;-82
2024/04/08 13:51:55;;;;;;;2.53;1.00;;;;;;;;;;5434005;26;20220;-81
2024/04/08 13:54:28;;;;;;;2.25;1.10;;;;;;;;;;5433752;26;20751;-81
2024/04/08 13:56:54;;;;;;;4.25;1.15;;;;;;;;;;5434062;26;20267;-82
2024/04/08 13:59:24;;;;;;;2.40;1.05;;;;;;;;;;5433308;26;20232;-81
2024/04/08 14:01:53;;;;;;;4.47;1.10;;;;;;;;;;5433452;26;20225;-80
2024/04/08 14:04:20;;;;;;;2.15;0.70;;;;;;;;;;5434022;26;20763;-81
2024/04/08 14:06:49;;;;;;;3.45;0.80;;;;;;;;;;5433951;26;20283;-81
2024/04/08 14:09:18;;;;;;;2.53;1.02;;;;;;;;;;5433691;26;20225;-82
2024/04/08 14:11:47;;;;;;;5.53;1.25;;;;;;;;;;5418467;26;20228;-82
2024/04/08 14:14:13;;;;;;;2.78;1.20;;;;;;;;;;5418572;26;20287;-81
2024/04/08 14:16:42;;;;;;;2.78;1.10;;;;;;;;;;5433607;26;20263;-80
2024/04/08 14:19:09;;;;;;;2.67;1.15;;;;;;;;;;5433408;26;20752;-82
2024/04/08 14:21:37;;;;;;;1.77;0.90;;;;;;;;;;5432083;26;20241;-81
2024/04/08 14:24:04;;;;;;;3.33;1.20;;;;;;;;;;5432984;26;20252;-82
2024/04/08 14:26:36;;;;;;;3.10;1.10;;;;;;;;;;5048299;26;10000248;-82
2024/04/08 14:29:02;;;;;;;4.07;1.47;;;;;;;;;;5421038;26;20279;-81
2024/04/08 14:31:31;;;;;;;5.33;1.10;;;;;;;;;;5426752;26;20337;-82
2024/04/08 14:33:57;;;;;;;3.53;1.03;;;;;;;;;;5427992;26;20229;-82
2024/04/08 14:36:26;;;;;;;2.63;1.10;;;;;;;;;;5429102;26;20233;-82
2024/04/08 14:38:52;;;;;;;3.20;1.13;;;;;;;;;;5428130;26;20221;-83
2024/04/08 14:41:23;;;;;;;2.03;0.90;;;;;;;;;;5428103;26;20329;-82
2024/04/08 14:43:54;;;;;;;3.50;1.17;;;;;;;;;;5424032;26;20241;-82